Airfield :
LOGIN :

Register | Disclaimer

   EN    FR    IT 

 










Legend :    VFR   Marginal VFR   IFR   Intensive IFR   Very Intensive IFR
Visi :
Ceiling :
>= 8 km
>= 3000ft
5 to 8 km
1000 to 3000 ft
1500m to 5 km
500 to 1000 ft
800 to 1500m
200 to 500 ft
< 800m
< 200 ft
Symbols :   Thunderstorms  Fog  Heavy snow  Heavy precipitations  Wind > 20 kt
SIGMETs :     Misc.  Thunderstorms  Icing  Turbulence  Mountain Waves  Volcanic Ashes






- Airport Elevation : 170 ft
- IATA code : KRP


EKKA - Karup

CURRENT METAR :
  • 200404Z AUTO 17011KT 9999 DZ OVC007/// 04/03 Q1008

EXPIRED METARs :
  • 200350Z AUTO 17009KT 9999 OVC008/// 04/03 Q1008
  • 200338Z AUTO 17009KT 9000 OVC008/// 04/03 Q1009
  • 200332Z AUTO 17009KT 9999 OVC009/// 04/02 Q1009
  • 200320Z AUTO 16008KT 9999 BKN014/// 03/02 Q1009
  • 200250Z AUTO 17008KT 9999 SCT020/// SCT180/// 03/02 Q1009
  • 200220Z AUTO 18006KT 9999 BKN180/// 03/02 Q1010
  • 200150Z AUTO 18007KT 9999 FEW021/// BKN200/// 03/02 Q1010
  • 200120Z AUTO 19006KT 9999 FEW026/// BKN200/// 03/02 Q1010

TAF TAF EKKA
Valid from the 20 at 03:00 until the 21 at 03:00 UTC


200221Z 2003/2103 18012KT 9999 BKN020
BECMG 2003/2005 2500 -RADZ BR BKN004
TEMPO 2005/2014 18015G28KT 5000 RADZ BKN010
TEMPO 2014/2021 20018G35KT 8000 RADZ SCT008 BKN015
BECMG 2021/2023 27015G25KT 9999 NSW SCT020
TEMPO 2023/2103 26015KT -SHRA FEW020CB



MET'MAP, your aeronautical weather chart ! - Copyright ORBIFLY December 2007 - Disclaimer

ORBIFLY MET'MAP TEAM :

Programming & Development : Alexandra Zaïnal
Concept & original design : Baudouin d'Aumeries
Assistance for programming : Marc-Olivier Méhu
Technical & hardware support : Manuel Goepfert

Contact : metmap@orbifly.com




SOURCES & CREDITS :

   NOAA